Time;durP1;ratioP1;P1;durP2;ratioP2;P2;SDS_P1;SDS_P2;PMS_P1;PMS_P2;Temp;Humidity;BMP_temperature;BMP_pressure;BME280_temperature;BME280_humidity;BME280_pressure;Samples;Min_cycle;Max_cycle;Signal;HPM_P1;HPM_P2
2022/06/17 00:02:00;;;;;;;2.40;1.67;;;18.70;76.20;;;;;;5081257;28;20466;-37
2022/06/17 00:04:27;;;;;;;3.50;2.30;;;18.70;76.30;;;;;;5095957;28;20466;-36
2022/06/17 00:06:57;;;;;;;2.03;1.50;;;18.70;76.60;;;;;;5095693;28;20529;-38
2022/06/17 00:09:25;;;;;;;2.00;1.30;;;18.70;77.00;;;;;;5095659;28;20530;-34
2022/06/17 00:11:52;;;;;;;2.57;1.60;;;18.60;76.70;;;;;;5095855;28;20427;-36
2022/06/17 00:14:21;;;;;;;4.70;2.20;;;18.60;76.80;;;;;;5095815;28;20482;-38
2022/06/17 00:16:48;;;;;;;4.50;2.63;;;18.60;77.10;;;;;;5095687;28;20466;-38
2022/06/17 00:19:18;;;;;;;2.97;1.97;;;18.60;77.40;;;;;;5095322;28;20497;-38
2022/06/17 00:21:51;;;;;;;2.33;1.93;;;18.60;77.90;;;;;;5088181;28;20765;-38
2022/06/17 00:24:21;;;;;;;2.00;1.73;;;18.60;78.20;;;;;;5089702;28;20533;-35
2022/06/17 00:26:49;;;;;;;2.03;1.80;;;18.60;78.90;;;;;;5095329;28;20430;-37
2022/06/17 00:29:20;;;;;;;2.77;1.70;;;18.50;79.40;;;;;;5095188;28;20473;-38
2022/06/17 00:31:47;;;;;;;2.93;1.93;;;18.40;80.00;;;;;;5087788;28;20469;-39
2022/06/17 00:34:16;;;;;;;3.63;1.73;;;18.30;80.70;;;;;;5085920;28;20468;-39
2022/06/17 00:36:45;;;;;;;3.60;2.33;;;18.30;80.60;;;;;;5095466;28;20477;-37
2022/06/17 00:39:14;;;;;;;2.60;2.03;;;18.30;81.00;;;;;;5086941;28;20508;-39
2022/06/17 00:41:43;;;;;;;3.27;1.70;;;18.30;81.00;;;;;;5085581;28;20435;-44
2022/06/17 00:44:28;;;;;;;3.10;1.87;;;18.30;81.90;;;;;;5085282;28;20447;-37
2022/06/17 00:47:02;;;;;;;2.53;1.67;;;18.20;82.70;;;;;;5096284;28;20498;-41
2022/06/17 00:49:40;;;;;;;2.20;1.60;;;18.20;83.00;;;;;;5084370;28;20597;-37
2022/06/17 00:52:26;;;;;;;2.77;1.80;;;18.10;83.50;;;;;;5091658;28;20431;-37
2022/06/17 00:54:57;;;;;;;1.90;1.60;;;18.10;84.10;;;;;;5095442;28;20458;-36
2022/06/17 00:57:35;;;;;;;1.60;1.37;;;18.10;84.90;;;;;;5094904;28;20450;-37
2022/06/17 01:00:14;;;;;;;2.20;1.57;;;18.10;85.60;;;;;;5095130;28;20474;-37
2022/06/17 01:02:45;;;;;;;4.17;2.00;;;18.10;86.20;;;;;;5095331;28;20510;-36
2022/06/17 01:05:12;;;;;;;3.57;1.90;;;18.10;86.60;;;;;;5095100;28;20438;-36
2022/06/17 01:07:45;;;;;;;2.80;1.80;;;18.00;87.00;;;;;;5095621;28;20481;-38
2022/06/17 01:10:16;;;;;;;5.03;2.10;;;18.00;87.60;;;;;;5085940;28;20870;-38
2022/06/17 01:12:49;;;;;;;8.27;2.30;;;18.00;88.20;;;;;;5087313;28;20449;-36
2022/06/17 01:15:19;;;;;;;3.70;2.20;;;18.00;88.60;;;;;;5095565;28;20406;-35
2022/06/17 01:17:48;;;;;;;6.73;2.03;;;18.00;89.90;;;;;;5095258;28;20442;-37
2022/06/17 01:20:20;;;;;;;6.80;2.43;;;17.90;89.60;;;;;;5095600;28;20482;-39
2022/06/17 01:22:50;;;;;;;3.63;1.70;;;17.90;90.10;;;;;;5095430;28;20465;-38
2022/06/17 01:25:20;;;;;;;4.10;1.67;;;17.90;90.30;;;;;;5095333;28;20494;-37
2022/06/17 01:27:49;;;;;;;2.80;1.90;;;17.90;90.60;;;;;;5095724;28;20426;-37
2022/06/17 01:30:19;;;;;;;2.07;1.27;;;17.90;90.70;;;;;;5095145;28;20470;-35
2022/06/17 01:32:50;;;;;;;1.77;1.30;;;17.90;90.90;;;;;;5095200;28;20458;-36
2022/06/17 01:35:19;;;;;;;2.93;1.83;;;17.80;91.20;;;;;;5094790;28;20418;-35
2022/06/17 01:37:50;;;;;;;3.23;2.47;;;17.80;91.50;;;;;;5092829;28;20472;-38
2022/06/17 01:40:19;;;;;;;2.03;1.87;;;17.80;91.90;;;;;;5081406;28;20466;-41
2022/06/17 01:42:49;;;;;;;2.03;1.57;;;17.80;92.20;;;;;;5095318;28;20485;-38
2022/06/17 01:45:16;;;;;;;8.57;1.70;;;17.80;92.50;;;;;;5094899;28;20522;-37
2022/06/17 01:47:45;;;;;;;2.50;1.70;;;17.70;92.70;;;;;;5095040;28;20441;-37
2022/06/17 01:50:16;;;;;;;5.03;1.43;;;17.70;93.00;;;;;;5095268;28;20449;-38
2022/06/17 01:52:53;;;;;;;3.57;1.73;;;17.70;93.30;;;;;;5095459;28;20423;-34
2022/06/17 01:55:25;;;;;;;1.87;1.70;;;17.70;93.70;;;;;;5091326;28;20548;-38
2022/06/17 01:57:58;;;;;;;1.53;1.20;;;17.70;94.30;;;;;;5083805;28;20441;-40
2022/06/17 02:00:27;;;;;;;2.07;1.87;;;17.70;94.70;;;;;;5095309;28;20521;-36
2022/06/17 02:02:59;;;;;;;2.10;1.67;;;17.70;95.10;;;;;;5095186;28;20459;-35
2022/06/17 02:05:27;;;;;;;5.57;2.20;;;17.60;95.50;;;;;;5094205;28;20490;-36
2022/06/17 02:08:04;;;;;;;2.20;1.53;;;17.60;96.00;;;;;;5095402;28;20461;-38
2022/06/17 02:10:36;;;;;;;2.60;1.53;;;17.60;96.40;;;;;;5097581;28;20822;-37
2022/06/17 02:13:05;;;;;;;3.03;1.73;;;17.60;97.00;;;;;;5097846;28;20461;-37
2022/06/17 02:15:33;;;;;;;3.87;1.60;;;17.50;97.50;;;;;;5098563;28;20492;-37
2022/06/17 02:18:02;;;;;;;2.90;1.70;;;17.50;98.00;;;;;;5097954;28;20461;-38
2022/06/17 02:20:29;;;;;;;2.60;1.73;;;17.40;98.70;;;;;;5098288;28;20498;-35
2022/06/17 02:22:58;;;;;;;3.17;2.40;;;17.40;99.20;;;;;;5098211;28;20495;-40
2022/06/17 02:25:28;;;;;;;4.23;2.30;;;17.40;99.50;;;;;;5097476;28;20521;-41
2022/06/17 02:27:57;;;;;;;2.17;1.97;;;17.30;99.90;;;;;;5097837;28;20491;-41
2022/06/17 02:30:29;;;;;;;3.10;1.60;;;17.30;99.90;;;;;;5090659;28;20548;-38
2022/06/17 02:33:02;;;;;;;4.53;1.70;;;17.30;99.90;;;;;;5089383;28;20517;-45
2022/06/17 02:35:36;;;;;;;2.57;1.60;;;17.30;99.90;;;;;;5097844;28;20486;-41
2022/06/17 02:38:05;;;;;;;4.63;1.80;;;17.30;99.90;;;;;;5088276;28;20426;-37
2022/06/17 02:40:35;;;;;;;3.43;2.10;;;17.20;99.90;;;;;;5091822;28;20470;-36
2022/06/17 02:43:05;;;;;;;4.50;1.90;;;17.20;99.90;;;;;;5097922;28;20506;-36
2022/06/17 02:45:36;;;;;;;3.03;1.90;;;17.20;99.90;;;;;;5098203;28;20470;-35
2022/06/17 02:48:08;;;;;;;2.00;1.53;;;17.20;99.90;;;;;;5097811;28;20443;-36
2022/06/17 02:50:35;;;;;;;3.67;1.93;;;17.20;99.90;;;;;;5097811;28;20501;-34
2022/06/17 02:53:05;;;;;;;1.93;1.70;;;17.10;99.90;;;;;;5097573;28;20518;-37
2022/06/17 02:55:35;;;;;;;2.40;1.63;;;17.10;99.90;;;;;;5097823;28;20502;-36
2022/06/17 02:58:11;;;;;;;7.03;2.27;;;17.10;99.90;;;;;;5097639;28;20474;-38
2022/06/17 03:00:38;;;;;;;2.57;2.20;;;17.10;99.90;;;;;;5096922;28;20469;-38
2022/06/17 03:03:13;;;;;;;1.80;1.70;;;17.00;99.90;;;;;;5096799;28;20427;-37
2022/06/17 03:05:44;;;;;;;3.53;2.10;;;17.10;99.90;;;;;;5096765;28;20505;-53
2022/06/17 03:08:22;;;;;;;2.20;1.83;;;17.10;99.90;;;;;;5097290;28;20423;-37
2022/06/17 03:10:51;;;;;;;5.87;3.33;;;17.00;99.90;;;;;;5080824;28;20493;-39
2022/06/17 03:13:21;;;;;;;2.90;2.57;;;17.00;99.90;;;;;;5097670;28;20497;-44
2022/06/17 03:15:52;;;;;;;5.13;2.57;;;16.90;99.90;;;;;;5097880;28;20490;-37
2022/06/17 03:18:20;;;;;;;4.27;3.67;;;16.90;99.90;;;;;;5097738;28;20427;-35
2022/06/17 03:20:49;;;;;;;4.10;2.77;;;16.90;99.90;;;;;;5096765;28;20467;-37
2022/06/17 03:23:24;;;;;;;5.10;2.10;;;16.90;99.90;;;;;;5097937;28;20434;-36
2022/06/17 03:25:58;;;;;;;4.47;2.10;;;16.90;99.90;;;;;;5097302;28;20454;-38
2022/06/17 03:28:29;;;;;;;3.40;2.27;;;16.80;99.90;;;;;;5096711;28;20411;-37
2022/06/17 03:31:03;;;;;;;3.03;1.90;;;16.80;99.90;;;;;;5095810;28;20486;-37
2022/06/17 03:33:35;;;;;;;2.70;2.03;;;16.80;99.90;;;;;;5096559;28;20465;-37
2022/06/17 03:36:08;;;;;;;2.67;2.07;;;16.80;99.90;;;;;;5096759;28;20457;-36
2022/06/17 03:38:43;;;;;;;2.37;2.17;;;16.80;99.90;;;;;;5096783;28;20478;-37
2022/06/17 03:41:19;;;;;;;7.43;2.03;;;16.80;99.90;;;;;;5097045;28;20521;-36
2022/06/17 03:43:54;;;;;;;5.20;1.90;;;16.80;99.90;;;;;;5097059;28;20415;-37
2022/06/17 03:46:24;;;;;;;3.10;2.00;;;16.80;99.90;;;;;;5096753;28;20503;-36
2022/06/17 03:49:07;;;;;;;7.80;1.80;;;16.90;99.90;;;;;;5097179;28;20430;-35
2022/06/17 03:51:37;;;;;;;2.10;1.77;;;16.90;99.90;;;;;;5097015;28;20458;-46
2022/06/17 03:54:06;;;;;;;2.63;1.97;;;16.90;99.90;;;;;;5096770;28;20477;-40
2022/06/17 03:56:36;;;;;;;6.10;2.37;;;16.90;99.90;;;;;;5096461;28;20490;-43
2022/06/17 03:59:06;;;;;;;9.10;2.50;;;16.90;99.90;;;;;;5096746;28;20506;-41
2022/06/17 04:01:39;;;;;;;3.27;2.40;;;16.90;99.90;;;;;;5096745;28;20466;-37
2022/06/17 04:04:15;;;;;;;5.40;2.40;;;16.90;99.90;;;;;;5096096;28;20466;-37
2022/06/17 04:06:46;;;;;;;8.17;2.60;;;16.90;99.90;;;;;;5080514;28;20472;-38
2022/06/17 04:09:18;;;;;;;2.53;1.97;;;16.90;99.90;;;;;;5095591;28;20466;-43
2022/06/17 04:11:48;;;;;;;2.80;2.43;;;16.90;99.90;;;;;;5096241;28;20486;-38
2022/06/17 04:14:19;;;;;;;4.90;2.50;;;17.00;99.90;;;;;;5096787;28;20757;-37
2022/06/17 04:16:53;;;;;;;4.73;2.60;;;17.00;99.90;;;;;;5085521;28;20504;-37
2022/06/17 04:19:23;;;;;;;3.07;2.53;;;17.00;99.90;;;;;;5092655;28;20441;-35
2022/06/17 04:21:56;;;;;;;4.37;2.53;;;17.10;99.90;;;;;;5045889;28;20458;-37
2022/06/17 04:24:27;;;;;;;4.13;2.83;;;17.10;99.90;;;;;;5095739;28;20490;-36
2022/06/17 04:26:59;;;;;;;4.40;3.40;;;17.10;99.90;;;;;;5095806;28;20466;-38
2022/06/17 04:29:32;;;;;;;5.07;3.13;;;17.10;99.90;;;;;;5095853;28;20441;-36
2022/06/17 04:32:03;;;;;;;8.67;3.10;;;17.20;99.90;;;;;;5094621;28;20562;-37
2022/06/17 04:34:30;;;;;;;3.60;2.50;;;17.10;99.90;;;;;;5088923;28;20426;-37
2022/06/17 04:37:03;;;;;;;3.90;2.80;;;17.20;99.90;;;;;;5093166;28;20463;-37
2022/06/17 04:39:34;;;;;;;5.20;3.57;;;17.30;99.90;;;;;;5095727;28;20473;-37
2022/06/17 04:42:05;;;;;;;3.17;2.87;;;17.30;99.90;;;;;;5096017;28;20447;-37
2022/06/17 04:44:31;;;;;;;5.30;3.03;;;17.40;99.90;;;;;;5096214;28;20437;-39
2022/06/17 04:47:03;;;;;;;4.03;2.77;;;17.30;99.90;;;;;;5095801;28;20478;-36
2022/06/17 04:49:34;;;;;;;3.80;2.70;;;17.30;99.90;;;;;;5096187;28;20423;-37
2022/06/17 04:52:03;;;;;;;5.20;3.20;;;17.30;99.90;;;;;;5095838;28;20470;-35
2022/06/17 04:54:33;;;;;;;5.70;3.20;;;17.30;99.90;;;;;;5086833;28;20440;-41
2022/06/17 04:57:06;;;;;;;5.17;3.00;;;17.30;99.90;;;;;;5095376;28;20469;-43
2022/06/17 04:59:37;;;;;;;4.63;3.00;;;17.30;99.90;;;;;;5095782;28;20419;-40
2022/06/17 05:02:07;;;;;;;3.37;2.70;;;17.30;99.90;;;;;;5094687;28;20454;-38
2022/06/17 05:04:34;;;;;;;5.17;3.67;;;17.30;99.90;;;;;;5094748;28;20430;-36
2022/06/17 05:07:01;;;;;;;3.50;3.10;;;17.40;99.90;;;;;;5094437;28;20506;-37
2022/06/17 05:09:32;;;;;;;5.17;3.33;;;17.40;99.90;;;;;;5091603;28;20449;-38
2022/06/17 05:12:05;;;;;;;6.93;3.43;;;17.40;99.90;;;;;;5083923;28;20484;-38
2022/06/17 05:14:41;;;;;;;4.03;3.10;;;17.50;99.90;;;;;;5094166;28;20419;-37
2022/06/17 05:17:08;;;;;;;8.47;3.13;;;17.50;99.90;;;;;;5076967;28;20483;-36
2022/06/17 05:19:35;;;;;;;4.27;2.80;;;17.60;99.90;;;;;;5084414;28;20469;-37
2022/06/17 05:22:03;;;;;;;3.33;3.03;;;17.60;99.90;;;;;;5093027;28;20461;-37
2022/06/17 05:24:32;;;;;;;10.23;3.77;;;17.60;99.90;;;;;;5094136;28;20510;-36
2022/06/17 05:26:59;;;;;;;4.13;3.67;;;17.70;99.90;;;;;;5094616;28;20500;-34
2022/06/17 05:29:26;;;;;;;4.40;3.10;;;17.70;99.90;;;;;;5094886;28;20435;-37
2022/06/17 05:31:53;;;;;;;5.53;3.67;;;17.80;99.90;;;;;;5094737;28;20516;-36
2022/06/17 05:34:20;;;;;;;6.30;3.60;;;17.90;99.90;;;;;;5094988;28;20450;-37
2022/06/17 05:36:47;;;;;;;4.60;3.60;;;17.90;99.90;;;;;;5094182;28;20485;-37
2022/06/17 05:39:14;;;;;;;3.70;3.20;;;18.00;99.90;;;;;;5094058;28;20446;-40
2022/06/17 05:41:42;;;;;;;5.37;3.40;;;18.00;99.90;;;;;;5093964;28;20474;-36
2022/06/17 05:44:09;;;;;;;3.90;3.10;;;18.00;99.90;;;;;;5096975;28;20470;-41
2022/06/17 05:46:36;;;;;;;6.43;3.63;;;18.10;99.90;;;;;;5097133;28;20480;-35
2022/06/17 05:49:03;;;;;;;4.67;2.90;;;18.10;99.90;;;;;;5097421;28;20509;-36
2022/06/17 05:51:31;;;;;;;4.13;2.87;;;18.10;99.90;;;;;;5097462;28;20576;-39
2022/06/17 05:53:58;;;;;;;3.70;3.40;;;18.10;99.90;;;;;;5097804;28;20465;-39
2022/06/17 05:56:25;;;;;;;7.17;3.47;;;18.10;99.90;;;;;;5097304;28;20474;-38
2022/06/17 05:58:56;;;;;;;10.03;4.10;;;18.10;99.90;;;;;;5097770;28;20422;-36
2022/06/17 06:01:23;;;;;;;15.40;4.30;;;18.20;99.90;;;;;;5059114;28;1120464;-35
2022/06/17 06:03:50;;;;;;;4.50;2.67;;;18.20;99.90;;;;;;5082901;28;20192;-37
2022/06/17 06:06:17;;;;;;;5.13;3.33;;;18.20;99.90;;;;;;5094858;28;20442;-37
2022/06/17 06:08:43;;;;;;;3.93;3.57;;;18.30;99.90;;;;;;5088221;28;20457;-38
2022/06/17 06:11:10;;;;;;;3.57;2.80;;;18.30;99.90;;;;;;5099117;28;20506;-37
2022/06/17 06:13:37;;;;;;;4.47;3.00;;;18.40;99.90;;;;;;5098067;28;20470;-38
2022/06/17 06:16:07;;;;;;;5.50;3.57;;;18.40;99.90;;;;;;5098640;28;20450;-37
2022/06/17 06:18:36;;;;;;;4.93;3.20;;;18.50;99.90;;;;;;5098559;28;20456;-38
2022/06/17 06:21:04;;;;;;;7.10;3.50;;;18.60;99.90;;;;;;5098442;28;20439;-38
2022/06/17 06:23:32;;;;;;;4.87;3.30;;;18.70;99.90;;;;;;5098688;28;20453;-38
2022/06/17 06:25:58;;;;;;;5.30;3.93;;;18.70;99.90;;;;;;5084589;28;20517;-38
2022/06/17 06:28:27;;;;;;;4.30;3.00;;;18.70;99.90;;;;;;5085499;28;20442;-43
2022/06/17 06:30:56;;;;;;;6.57;3.90;;;18.80;99.90;;;;;;5094728;28;20446;-37
2022/06/17 06:33:24;;;;;;;5.53;3.23;;;18.80;99.90;;;;;;5097987;28;21188;-37
2022/06/17 06:35:53;;;;;;;7.23;4.13;;;18.90;99.90;;;;;;5097937;28;20474;-35
2022/06/17 06:38:21;;;;;;;3.70;3.10;;;18.90;99.90;;;;;;5097700;28;20518;-38
2022/06/17 06:40:48;;;;;;;3.60;3.27;;;19.00;99.90;;;;;;5098289;28;20446;-35
2022/06/17 06:43:17;;;;;;;10.30;2.97;;;19.10;99.90;;;;;;5098135;28;20471;-37
2022/06/17 06:45:46;;;;;;;10.50;3.50;;;19.10;99.90;;;;;;5096635;28;20435;-38
2022/06/17 06:48:15;;;;;;;5.50;3.00;;;19.20;99.90;;;;;;5097557;28;20450;-37
2022/06/17 06:50:46;;;;;;;4.30;3.30;;;19.30;99.90;;;;;;5078839;28;20555;-38
2022/06/17 06:53:13;;;;;;;3.90;3.50;;;19.40;99.90;;;;;;5096549;28;20971;-37
2022/06/17 06:55:41;;;;;;;7.30;3.40;;;19.50;99.90;;;;;;5090975;28;20510;-37
2022/06/17 06:58:12;;;;;;;6.30;3.10;;;19.70;99.90;;;;;;5087120;28;20852;-36
2022/06/17 07:00:42;;;;;;;6.37;3.03;;;19.80;99.90;;;;;;5082600;28;20514;-38
2022/06/17 07:03:10;;;;;;;6.00;3.23;;;19.90;99.90;;;;;;5082458;28;20451;-37
2022/06/17 07:05:38;;;;;;;4.30;3.80;;;20.10;99.90;;;;;;5084890;28;20447;-37
2022/06/17 07:08:08;;;;;;;4.30;2.97;;;20.10;99.90;;;;;;5088104;28;20534;-36
2022/06/17 07:10:37;;;;;;;5.03;3.10;;;20.30;99.90;;;;;;5091421;28;20434;-36
2022/06/17 07:13:05;;;;;;;6.90;3.87;;;20.40;99.90;;;;;;5090815;28;20490;-38
2022/06/17 07:15:33;;;;;;;6.17;3.00;;;20.60;99.90;;;;;;5095141;28;20435;-36
2022/06/17 07:18:03;;;;;;;6.30;2.67;;;20.90;99.90;;;;;;5095104;28;20497;-38
2022/06/17 07:20:36;;;;;;;6.07;3.40;;;21.90;99.90;;;;;;5088459;28;20486;-37
2022/06/17 07:23:04;;;;;;;5.60;3.40;;;23.30;99.90;;;;;;5086287;28;20463;-39
2022/06/17 07:25:33;;;;;;;5.10;2.50;;;24.50;98.00;;;;;;5093273;28;20457;-38
2022/06/17 07:28:00;;;;;;;3.23;2.13;;;25.80;93.80;;;;;;5091304;28;20498;-40
2022/06/17 07:30:27;;;;;;;2.53;2.27;;;27.00;88.30;;;;;;5090891;28;20463;-44
2022/06/17 07:32:54;;;;;;;4.33;2.50;;;28.20;80.20;;;;;;5086257;28;20489;-38
2022/06/17 07:35:22;;;;;;;3.30;2.40;;;29.10;73.60;;;;;;5086689;28;20461;-37
2022/06/17 07:40:36;;;;;;;3.17;2.40;;;30.30;64.40;;;;;;5088177;28;20410;-39
2022/06/17 07:43:03;;;;;;;3.93;3.53;;;30.80;60.90;;;;;;5077531;28;20527;-37
2022/06/17 07:45:32;;;;;;;4.77;2.40;;;31.00;59.50;;;;;;5093982;28;20442;-38
2022/06/17 07:48:01;;;;;;;3.23;2.60;;;31.20;58.10;;;;;;5089912;28;20442;-35
2022/06/17 07:50:31;;;;;;;7.60;3.10;;;31.50;57.00;;;;;;5073865;28;20562;-38
2022/06/17 07:52:58;;;;;;;3.40;2.83;;;31.80;56.70;;;;;;5072397;28;20550;-39
2022/06/17 07:55:26;;;;;;;4.67;2.77;;;32.10;54.90;;;;;;5071414;28;20442;-38
2022/06/17 07:57:54;;;;;;;3.00;2.70;;;32.00;54.10;;;;;;5065417;28;20450;-38
2022/06/17 08:00:24;;;;;;;3.43;2.43;;;31.90;54.60;;;;;;5071582;28;20476;-39
2022/06/17 08:02:51;;;;;;;2.80;2.40;;;31.80;53.90;;;;;;5092861;28;20899;-37
2022/06/17 08:05:20;;;;;;;3.40;2.70;;;32.00;53.60;;;;;;5092724;28;20462;-36
2022/06/17 08:07:47;;;;;;;3.47;2.60;;;32.40;53.00;;;;;;5091951;28;20484;-37
2022/06/17 08:10:17;;;;;;;4.03;2.40;;;32.20;52.30;;;;;;5092758;28;20463;-39
2022/06/17 08:12:44;;;;;;;2.40;2.20;;;32.20;52.30;;;;;;5092391;28;20534;-38
2022/06/17 08:15:13;;;;;;;4.47;2.13;;;32.40;51.60;;;;;;5091696;28;20466;-37
2022/06/17 08:17:40;;;;;;;4.53;2.07;;;32.40;50.90;;;;;;5092752;28;20477;-39
2022/06/17 08:20:09;;;;;;;4.10;2.83;;;32.20;50.90;;;;;;5091179;28;20449;-42
2022/06/17 08:22:37;;;;;;;3.70;2.90;;;32.20;51.00;;;;;;5092443;28;20525;-34
2022/06/17 08:25:04;;;;;;;4.47;2.90;;;32.10;50.70;;;;;;5091134;28;20465;-37
2022/06/17 08:27:31;;;;;;;3.47;2.37;;;31.70;50.80;;;;;;5090600;28;20447;-37
2022/06/17 08:29:58;;;;;;;4.33;2.20;;;31.30;50.60;;;;;;5091701;28;20590;-38
2022/06/17 08:35:11;;;;;;;3.03;2.23;;;30.90;51.40;;;;;;5092315;28;20405;-37
2022/06/17 08:37:38;;;;;;;2.90;2.37;;;31.20;50.80;;;;;;5091999;28;20562;-37
2022/06/17 08:40:18;;;;;;;3.03;2.13;;;31.00;50.00;;;;;;5092230;28;20498;-42
2022/06/17 08:42:52;;;;;;;5.00;2.17;;;30.80;50.70;;;;;;5091923;28;20466;-36
2022/06/17 08:45:32;;;;;;;4.87;2.30;;;31.00;50.40;;;;;;5091629;28;20493;-36
2022/06/17 08:48:16;;;;;;;2.60;2.40;;;31.00;49.80;;;;;;5092512;28;20938;-37
2022/06/17 08:51:06;;;;;;;2.43;1.90;;;31.10;49.50;;;;;;5091647;28;20463;-39
2022/06/17 08:54:04;;;;;;;2.23;1.80;;;31.00;49.70;;;;;;5091592;28;20562;-38
2022/06/17 08:56:39;;;;;;;3.40;3.10;;;31.70;48.40;;;;;;5091139;28;20430;-38
2022/06/17 08:59:23;;;;;;;5.53;2.60;;;31.70;47.80;;;;;;5090085;28;20461;-38
2022/06/17 09:01:55;;;;;;;3.07;2.20;;;31.50;47.30;;;;;;5090276;28;20572;-38
2022/06/17 09:04:35;;;;;;;4.93;2.40;;;31.60;47.20;;;;;;5091201;28;20457;-36
2022/06/17 09:07:13;;;;;;;3.90;1.57;;;31.80;47.70;;;;;;5091832;28;20434;-35
2022/06/17 09:10:00;;;;;;;2.30;1.80;;;32.10;46.90;;;;;;5092113;28;20504;-37
2022/06/17 09:12:37;;;;;;;2.70;1.70;;;32.30;46.60;;;;;;5092562;28;20482;-37
2022/06/17 09:15:11;;;;;;;9.90;1.80;;;32.60;45.70;;;;;;5091338;28;20468;-40
2022/06/17 09:17:47;;;;;;;3.77;2.30;;;32.70;45.80;;;;;;5092007;28;20422;-42
2022/06/17 09:20:20;;;;;;;2.27;2.00;;;32.90;46.10;;;;;;5095724;28;20462;-39
2022/06/17 09:22:55;;;;;;;1.90;1.70;;;33.20;44.80;;;;;;5095589;28;20422;-39
2022/06/17 09:25:27;;;;;;;2.37;2.00;;;33.20;44.30;;;;;;5094397;28;20530;-41
2022/06/17 09:27:57;;;;;;;2.90;1.47;;;33.10;43.50;;;;;;5095121;28;20482;-38
2022/06/17 09:30:31;;;;;;;1.80;1.60;;;32.90;43.80;;;;;;5094746;28;20477;-39
2022/06/17 09:33:05;;;;;;;2.03;1.87;;;32.70;43.90;;;;;;5095343;28;20466;-37
2022/06/17 09:35:37;;;;;;;2.33;1.80;;;32.60;43.70;;;;;;5095458;28;20437;-37
2022/06/17 09:38:10;;;;;;;3.50;1.87;;;32.80;43.60;;;;;;5093648;28;20519;-36
2022/06/17 09:40:41;;;;;;;3.70;2.20;;;33.00;43.70;;;;;;5094776;28;20494;-37
2022/06/17 09:43:13;;;;;;;2.20;2.00;;;33.20;43.20;;;;;;5094558;28;20426;-37
2022/06/17 09:45:44;;;;;;;2.60;2.13;;;33.10;43.40;;;;;;5094551;28;20434;-39
2022/06/17 09:48:17;;;;;;;1.90;1.80;;;33.20;42.50;;;;;;5095917;28;20506;-38
2022/06/17 09:50:49;;;;;;;1.90;1.73;;;33.30;43.50;;;;;;5096367;28;20430;-37
2022/06/17 09:53:22;;;;;;;3.63;2.33;;;33.40;42.70;;;;;;5095491;28;20510;-40
2022/06/17 09:55:52;;;;;;;2.57;1.40;;;33.80;42.60;;;;;;5094923;28;20446;-39
2022/06/17 09:58:25;;;;;;;4.50;1.80;;;34.00;41.50;;;;;;5077205;28;20508;-37
2022/06/17 10:00:55;;;;;;;2.00;1.57;;;34.10;41.30;;;;;;5095102;28;20453;-40
2022/06/17 10:03:24;;;;;;;4.90;1.90;;;34.00;40.40;;;;;;5093142;28;20466;-38
2022/06/17 10:06:07;;;;;;;2.57;1.57;;;33.70;40.40;;;;;;5093601;28;20457;-37
2022/06/17 10:08:48;;;;;;;2.03;1.83;;;33.40;40.90;;;;;;5094050;28;20522;-39
2022/06/17 10:11:25;;;;;;;2.17;1.80;;;33.10;40.80;;;;;;5093573;28;20474;-39
2022/06/17 10:14:13;;;;;;;5.00;1.93;;;32.90;41.00;;;;;;5092610;28;20489;-39
2022/06/17 10:19:39;;;;;;;5.33;2.17;;;32.90;42.10;;;;;;5092435;28;20449;-37
2022/06/17 10:22:27;;;;;;;2.07;1.73;;;32.80;42.30;;;;;;5093500;28;20426;-38
2022/06/17 10:25:05;;;;;;;2.67;1.80;;;32.60;41.50;;;;;;5093273;28;20469;-38
2022/06/17 10:27:47;;;;;;;2.07;1.80;;;32.50;41.20;;;;;;5093788;28;20478;-38
2022/06/17 10:30:18;;;;;;;2.07;1.53;;;32.00;41.60;;;;;;5092599;28;20462;-38
2022/06/17 10:32:48;;;;;;;2.97;1.73;;;31.70;42.70;;;;;;5092892;28;20508;-38
2022/06/17 10:35:19;;;;;;;6.33;1.93;;;31.60;43.80;;;;;;5093995;28;20466;-38
2022/06/17 10:37:49;;;;;;;3.20;1.70;;;31.60;42.60;;;;;;5093099;28;20437;-38
2022/06/17 10:40:19;;;;;;;2.27;1.60;;;31.40;42.40;;;;;;5094226;28;20464;-40
2022/06/17 10:42:48;;;;;;;2.60;1.80;;;31.20;42.70;;;;;;5093856;28;20415;-38
2022/06/17 10:45:17;;;;;;;2.87;2.00;;;31.00;44.40;;;;;;5094019;28;20450;-38
2022/06/17 10:47:50;;;;;;;2.10;1.90;;;30.80;44.50;;;;;;5093684;28;20446;-39
2022/06/17 10:50:22;;;;;;;2.03;1.83;;;30.60;44.30;;;;;;5093584;28;20461;-39
2022/06/17 10:52:55;;;;;;;3.33;1.70;;;30.10;44.90;;;;;;5093924;28;20483;-39
2022/06/17 10:55:29;;;;;;;5.20;1.50;;;29.50;45.70;;;;;;5093934;28;20426;-39
2022/06/17 10:58:17;;;;;;;1.83;1.60;;;29.40;46.20;;;;;;5094181;28;20473;-37
2022/06/17 11:00:56;;;;;;;3.17;2.63;;;29.20;46.30;;;;;;5093194;28;20442;-40
2022/06/17 11:03:28;;;;;;;2.07;1.90;;;29.00;46.90;;;;;;5093764;28;20470;-38
2022/06/17 11:06:01;;;;;;;1.90;1.70;;;28.80;47.20;;;;;;5093650;28;20486;-39
2022/06/17 11:08:37;;;;;;;2.10;1.90;;;28.90;48.00;;;;;;5093656;28;20473;-39
2022/06/17 11:13:52;;;;;;;2.80;1.80;;;29.30;46.80;;;;;;5094301;28;20481;-37
2022/06/17 11:16:23;;;;;;;2.07;1.80;;;29.30;46.70;;;;;;5094568;28;20922;-36
2022/06/17 11:18:58;;;;;;;2.90;1.90;;;29.30;45.70;;;;;;5085048;28;20549;-39
2022/06/17 11:21:29;;;;;;;1.60;1.50;;;29.20;46.30;;;;;;5081151;28;20432;-35
2022/06/17 11:23:59;;;;;;;1.97;1.70;;;29.20;46.00;;;;;;5083406;28;20497;-43
2022/06/17 11:26:30;;;;;;;2.37;1.53;;;28.90;46.60;;;;;;5083984;28;20447;-39
2022/06/17 11:29:00;;;;;;;2.17;1.70;;;28.80;46.90;;;;;;5083455;28;20439;-38
2022/06/17 11:31:41;;;;;;;2.20;1.57;;;28.50;47.30;;;;;;5081281;28;20459;-37
2022/06/17 11:34:15;;;;;;;3.43;2.43;;;28.40;47.30;;;;;;5082415;28;20497;-37
2022/06/17 11:36:57;;;;;;;2.90;1.70;;;28.50;47.60;;;;;;5083123;28;20835;-36
2022/06/17 11:39:34;;;;;;;3.00;2.30;;;28.70;49.00;;;;;;5077847;28;20439;-35
2022/06/17 11:42:03;;;;;;;6.67;3.30;;;28.70;47.50;;;;;;5072438;28;20469;-32
2022/06/17 11:44:31;;;;;;;3.63;2.63;;;28.90;48.40;;;;;;5074517;28;20482;-37
2022/06/17 11:47:01;;;;;;;2.50;2.30;;;28.90;47.80;;;;;;5080700;28;20494;-41
2022/06/17 11:49:28;;;;;;;2.00;1.80;;;29.00;47.40;;;;;;5093032;28;20729;-38
2022/06/17 11:52:00;;;;;;;4.50;1.57;;;28.90;47.00;;;;;;5092728;28;20533;-38
2022/06/17 11:54:32;;;;;;;1.83;1.47;;;28.60;47.10;;;;;;5093061;28;20462;-36
2022/06/17 11:57:12;;;;;;;2.63;2.03;;;28.40;46.20;;;;;;5094142;28;20498;-33
2022/06/17 11:59:42;;;;;;;1.70;1.50;;;28.40;47.50;;;;;;5081814;28;20511;-38
2022/06/17 12:02:13;;;;;;;3.43;1.90;;;28.40;48.20;;;;;;5073188;28;20502;-36
2022/06/17 12:04:43;;;;;;;1.60;1.50;;;28.30;47.90;;;;;;5071906;28;20519;-37
2022/06/17 12:07:32;;;;;;;1.70;1.60;;;28.30;48.50;;;;;;5073125;28;20487;-36
2022/06/17 12:10:32;;;;;;;1.60;1.50;;;27.90;48.20;;;;;;5074628;28;20500;-37
2022/06/17 12:13:04;;;;;;;2.30;1.30;;;27.80;48.50;;;;;;5028009;28;20502;-35
2022/06/17 12:15:37;;;;;;;1.60;1.50;;;27.70;47.50;;;;;;5074397;28;20467;-33
2022/06/17 12:18:06;;;;;;;2.40;1.87;;;27.60;47.80;;;;;;5074514;28;20916;-38
2022/06/17 12:20:45;;;;;;;3.50;1.70;;;27.50;48.00;;;;;;5075327;28;20507;-37
2022/06/17 12:23:19;;;;;;;2.00;1.80;;;27.50;48.40;;;;;;5074332;28;20445;-33
2022/06/17 12:25:55;;;;;;;2.30;1.60;;;27.60;48.50;;;;;;5074451;28;20443;-36
2022/06/17 12:28:33;;;;;;;1.70;1.60;;;27.80;48.50;;;;;;5057611;28;20466;-37
2022/06/17 12:31:06;;;;;;;1.43;1.30;;;27.90;47.90;;;;;;5075593;28;20910;-37
2022/06/17 12:33:40;;;;;;;1.90;1.53;;;27.80;48.30;;;;;;5074842;28;20467;-37
2022/06/17 12:36:16;;;;;;;2.83;1.93;;;27.90;48.30;;;;;;5074992;28;20463;-36
2022/06/17 12:38:54;;;;;;;2.10;1.90;;;28.00;48.20;;;;;;5075455;28;20471;-36
2022/06/17 12:41:31;;;;;;;2.03;1.83;;;28.00;47.80;;;;;;5074578;28;20487;-32
2022/06/17 12:44:12;;;;;;;2.37;1.90;;;28.00;47.80;;;;;;5066242;28;20431;-38
2022/06/17 12:46:46;;;;;;;2.73;2.30;;;27.90;47.40;;;;;;5060221;28;20505;-38
2022/06/17 12:55:09;;;;;;;2.67;1.50;;;27.60;47.30;;;;;;5060274;28;20459;-37
2022/06/17 12:57:46;;;;;;;2.17;1.97;;;27.60;47.50;;;;;;5066069;28;20466;-38
2022/06/17 13:00:20;;;;;;;1.70;1.43;;;27.70;48.10;;;;;;5073197;28;20435;-39
2022/06/17 13:03:07;;;;;;;3.83;1.80;;;27.80;47.40;;;;;;5074451;28;20456;-34
2022/06/17 13:05:40;;;;;;;4.27;2.03;;;27.90;48.00;;;;;;5077467;28;20434;-38
2022/06/17 13:08:20;;;;;;;4.43;2.03;;;28.20;47.80;;;;;;5081085;28;20507;-38
2022/06/17 13:10:53;;;;;;;2.60;1.90;;;28.20;47.50;;;;;;5072100;28;20431;-36
2022/06/17 13:13:37;;;;;;;4.10;1.77;;;28.20;47.80;;;;;;5072171;28;20438;-36
2022/06/17 13:16:07;;;;;;;2.60;1.90;;;28.30;48.10;;;;;;5071910;28;20454;-37
2022/06/17 13:18:43;;;;;;;1.90;1.63;;;28.20;48.30;;;;;;5070695;28;20519;-38
2022/06/17 13:21:16;;;;;;;2.10;1.50;;;28.10;48.40;;;;;;5071360;28;20739;-39
2022/06/17 13:23:51;;;;;;;8.93;2.30;;;28.00;48.70;;;;;;5071130;28;20427;-39
2022/06/17 13:26:22;;;;;;;2.20;1.53;;;27.90;49.70;;;;;;5070158;28;20462;-36